createdAt,value
2018-09-10T00:01:59.911Z,100850.22
2018-09-10T00:04:28.043Z,100850.22
2018-09-10T00:06:56.142Z,100854.91
2018-09-10T00:09:24.207Z,100858.08
2018-09-10T00:11:52.288Z,100865.16
2018-09-10T00:14:20.331Z,100866.12
2018-09-10T00:16:48.403Z,100862.93
2018-09-10T00:19:16.437Z,100855.53
2018-09-10T00:21:44.533Z,100863.03
2018-09-10T00:24:12.619Z,100861.00
2018-09-10T00:26:40.731Z,100856.83
2018-09-10T00:29:08.824Z,100859.19
2018-09-10T00:31:36.878Z,100854.58
2018-09-10T00:34:04.968Z,100849.18
2018-09-10T00:36:33.021Z,100848.38
2018-09-10T00:39:01.071Z,100847.95
2018-09-10T00:41:29.128Z,100851.31
2018-09-10T00:43:57.216Z,100856.28
2018-09-10T00:46:25.263Z,100849.86
2018-09-10T00:48:53.368Z,100850.02
2018-09-10T00:51:21.435Z,100852.58
2018-09-10T00:53:49.496Z,100849.44
2018-09-10T00:56:17.536Z,100847.83
2018-09-10T00:58:46.516Z,100855.16
2018-09-10T01:01:14.600Z,100857.36
2018-09-10T01:03:42.695Z,100863.66
2018-09-10T01:06:10.772Z,100849.77
2018-09-10T01:08:38.823Z,100852.96
2018-09-10T01:11:06.900Z,100850.19
2018-09-10T01:13:34.947Z,100846.98
2018-09-10T01:16:03.088Z,100849.60
2018-09-10T01:18:31.165Z,100854.25
2018-09-10T01:20:59.659Z,100849.28
2018-09-10T01:23:27.721Z,100847.53
2018-09-10T01:25:55.749Z,100842.40
2018-09-10T01:28:23.810Z,100840.04
2018-09-10T01:30:51.852Z,100838.48
2018-09-10T01:33:25.414Z,100840.58
2018-09-10T01:35:53.485Z,100835.08
2018-09-10T01:38:21.543Z,100832.36
2018-09-10T01:40:49.619Z,100830.00
2018-09-10T01:43:17.667Z,100833.00
2018-09-10T01:48:20.496Z,100830.33
2018-09-10T01:50:48.692Z,100830.50
2018-09-10T01:53:16.781Z,100835.83
2018-09-10T01:55:44.825Z,100828.30
2018-09-10T01:58:12.913Z,100835.89
2018-09-10T02:00:40.966Z,100827.74
2018-09-10T02:03:09.242Z,100831.72
2018-09-10T02:05:37.272Z,100827.55
2018-09-10T02:08:05.353Z,100831.91
2018-09-10T02:10:33.424Z,100831.50
2018-09-10T02:13:01.491Z,100825.94
2018-09-10T02:15:29.556Z,100825.13
2018-09-10T02:17:57.642Z,100817.99
2018-09-10T02:20:25.857Z,100823.91
2018-09-10T02:22:53.879Z,100821.72
2018-09-10T02:25:21.980Z,100822.10
2018-09-10T02:27:50.120Z,100822.52
2018-09-10T02:30:18.174Z,100822.33
2018-09-10T02:32:46.318Z,100814.19
2018-09-10T02:35:14.356Z,100815.98
2018-09-10T02:37:42.436Z,100815.80
2018-09-10T02:40:10.584Z,100811.82
2018-09-10T02:42:38.689Z,100804.77
2018-09-10T02:45:06.804Z,100803.60
2018-09-10T02:47:34.957Z,100797.07
2018-09-10T02:50:03.159Z,100800.71
2018-09-10T02:52:31.249Z,100802.97
2018-09-10T02:54:59.360Z,100800.82
2018-09-10T02:57:27.444Z,100801.06
2018-09-10T02:59:55.594Z,100803.09
2018-09-10T03:02:23.695Z,100805.93
2018-09-10T03:04:51.826Z,100801.01
2018-09-10T03:07:19.911Z,100808.38
2018-09-10T03:09:48.008Z,100811.73
2018-09-10T03:12:16.073Z,100802.64
2018-09-10T03:14:44.178Z,100801.58
2018-09-10T03:17:12.355Z,100796.48
2018-09-10T03:19:40.526Z,100794.52
2018-09-10T03:22:08.582Z,100786.81
2018-09-10T03:24:36.725Z,100790.48
2018-09-10T03:27:04.767Z,100783.18
2018-09-10T03:29:32.908Z,100780.67
2018-09-10T03:32:00.990Z,100772.10
2018-09-10T03:34:29.080Z,100781.31
2018-09-10T03:36:57.163Z,100768.66
2018-09-10T03:39:25.254Z,100772.03
2018-09-10T03:41:53.305Z,100768.20
2018-09-10T03:44:21.438Z,100768.55
2018-09-10T03:46:49.517Z,100766.70
2018-09-10T03:49:17.579Z,100775.05
2018-09-10T03:51:46.645Z,100777.16
2018-09-10T03:54:14.704Z,100777.21
2018-09-10T03:56:42.776Z,100786.10
2018-09-10T03:59:10.877Z,100788.20
2018-09-10T04:01:38.961Z,100798.52
2018-09-10T04:04:07.079Z,100805.45
2018-09-10T04:06:35.184Z,100811.91
2018-09-10T04:09:03.321Z,100811.06
2018-09-10T04:11:31.371Z,100805.30
2018-09-10T04:13:59.505Z,100811.28
2018-09-10T04:16:27.563Z,100809.87
2018-09-10T04:18:55.715Z,100810.84
2018-09-10T04:21:23.805Z,100821.16
2018-09-10T04:23:51.861Z,100832.63
2018-09-10T04:26:19.973Z,100841.56
2018-09-10T04:28:48.035Z,100841.13
2018-09-10T04:31:16.203Z,100834.94
2018-09-10T04:33:44.337Z,100841.12
2018-09-10T04:36:12.476Z,100843.91
2018-09-10T04:38:40.569Z,100841.89
2018-09-10T04:41:08.692Z,100843.64
2018-09-10T04:43:36.723Z,100842.20
2018-09-10T04:46:04.784Z,100841.44
2018-09-10T04:48:32.844Z,100846.64
2018-09-10T04:51:00.992Z,100848.45
2018-09-10T04:53:29.052Z,100841.13
2018-09-10T04:55:57.214Z,100834.47
2018-09-10T04:58:25.341Z,100838.00
2018-09-10T05:00:55.773Z,100839.31
2018-09-10T05:03:23.848Z,100837.04
2018-09-10T05:05:52.012Z,100844.70
2018-09-10T05:08:20.117Z,100836.19
2018-09-10T05:10:48.279Z,100836.86
2018-09-10T05:13:16.367Z,100833.33
2018-09-10T05:15:44.448Z,100828.17
2018-09-10T05:18:12.537Z,100832.20
2018-09-10T05:20:40.595Z,100837.80
2018-09-10T05:23:08.865Z,100837.23
2018-09-10T05:25:36.913Z,100832.05
2018-09-10T05:28:05.204Z,100826.07
2018-09-10T05:30:33.291Z,100830.66
2018-09-10T05:33:01.351Z,100830.04
2018-09-10T05:35:29.471Z,100835.00
2018-09-10T05:37:57.599Z,100844.17
2018-09-10T05:40:25.649Z,100847.77
2018-09-10T05:42:53.740Z,100838.41
2018-09-10T05:45:21.792Z,100843.64
2018-09-10T05:47:50.605Z,100848.62
2018-09-10T05:50:18.676Z,100845.48
2018-09-10T05:52:46.793Z,100845.12
2018-09-10T05:55:14.851Z,100849.36
2018-09-10T05:57:42.935Z,100852.95
2018-09-10T06:00:11.232Z,100848.80
2018-09-10T06:02:41.278Z,100850.61
2018-09-10T06:05:11.412Z,100858.59
2018-09-10T06:07:40.785Z,100860.23
2018-09-10T06:10:10.889Z,100876.59
2018-09-10T06:12:39.877Z,100874.41
2018-09-10T06:15:08.061Z,100875.82
2018-09-10T06:17:36.224Z,100874.23
2018-09-10T06:20:04.335Z,100871.05
2018-09-10T06:22:32.427Z,100872.24
2018-09-10T06:25:00.483Z,100871.86
2018-09-10T06:27:28.692Z,100868.28
2018-09-10T06:29:56.869Z,100876.27
2018-09-10T06:32:25.856Z,100883.88
2018-09-10T06:34:54.006Z,100889.85
2018-09-10T06:37:22.162Z,100888.87
2018-09-10T06:39:50.223Z,100891.47
2018-09-10T06:42:18.265Z,100894.05
2018-09-10T06:44:46.307Z,100891.25
2018-09-10T06:47:14.380Z,100889.47
2018-09-10T06:49:42.494Z,100891.84
2018-09-10T06:52:10.609Z,100890.27
2018-09-10T06:54:38.783Z,100888.44
2018-09-10T06:57:06.839Z,100886.47
2018-09-10T06:59:34.896Z,100897.46
2018-09-10T07:02:02.988Z,100898.46
2018-09-10T07:04:31.057Z,100905.88
2018-09-10T07:06:59.119Z,100914.28
2018-09-10T07:09:27.216Z,100908.70
2018-09-10T07:11:55.273Z,100905.92
2018-09-10T07:14:23.346Z,100899.53
2018-09-10T07:16:51.466Z,100895.34
2018-09-10T07:19:19.533Z,100887.37
2018-09-10T07:21:47.625Z,100893.55
2018-09-10T07:24:15.702Z,100889.13
2018-09-10T07:26:43.789Z,100883.15
2018-09-10T07:29:12.312Z,100881.71
2018-09-10T07:31:40.409Z,100867.55
2018-09-10T07:34:08.479Z,100901.30
2018-09-10T07:36:36.527Z,100914.77
2018-09-10T07:39:07.199Z,100922.20
2018-09-10T07:41:35.297Z,100928.42
2018-09-10T07:44:04.071Z,100918.92
2018-09-10T07:46:32.088Z,100929.08
2018-09-10T07:49:00.244Z,100919.62
2018-09-10T07:51:28.191Z,100922.00
2018-09-10T07:53:56.313Z,100921.39
2018-09-10T07:56:25.171Z,100931.66
2018-09-10T07:58:53.676Z,100930.02
2018-09-10T08:01:21.790Z,100939.86
2018-09-10T08:03:49.967Z,100934.57
2018-09-10T08:06:18.124Z,100930.97
2018-09-10T08:08:46.191Z,100923.18
2018-09-10T08:11:14.532Z,100921.00
2018-09-10T08:13:42.656Z,100922.05
2018-09-10T08:16:10.724Z,100929.05
2018-09-10T08:18:38.887Z,100942.27
2018-09-10T08:21:06.968Z,100938.84
2018-09-10T08:26:12.889Z,100947.97
2018-09-10T08:28:44.420Z,100939.31
2018-09-10T08:31:12.787Z,100944.18
2018-09-10T08:33:41.976Z,100932.70
2018-09-10T08:36:11.225Z,100937.70
2018-09-10T08:38:39.377Z,100936.36
2018-09-10T08:41:09.226Z,100939.54
2018-09-10T08:43:37.319Z,100935.47
2018-09-10T08:46:05.391Z,100944.70
2018-09-10T08:48:35.017Z,100933.48
2018-09-10T08:51:03.767Z,100950.06
2018-09-10T08:53:34.276Z,100951.89
2018-09-10T08:56:02.760Z,100947.70
2018-09-10T08:58:33.116Z,100940.08
2018-09-10T09:01:01.416Z,100955.68
2018-09-10T09:03:30.859Z,100954.16
2018-09-10T09:06:01.794Z,100940.67
2018-09-10T09:08:31.936Z,100952.32
2018-09-10T09:11:00.022Z,100954.30
2018-09-10T09:13:31.810Z,100951.42
2018-09-10T09:15:59.934Z,100952.08
2018-09-10T09:18:29.440Z,100956.14
2018-09-10T09:21:02.556Z,100953.55
2018-09-10T09:23:30.718Z,100955.13
2018-09-10T09:26:02.946Z,100954.41
2018-09-10T09:28:34.741Z,100952.36
2018-09-10T09:31:02.855Z,100955.17
2018-09-10T09:33:30.954Z,100960.22
2018-09-10T09:36:04.460Z,100957.19
2018-09-10T09:38:37.710Z,100953.83
2018-09-10T09:41:11.215Z,100953.95
2018-09-10T09:43:44.821Z,100952.84
2018-09-10T09:46:15.110Z,100963.17
2018-09-10T09:48:43.199Z,100963.17
2018-09-10T09:51:11.308Z,100962.69
2018-09-10T09:53:39.377Z,100963.44
2018-09-10T09:56:07.537Z,100961.08
2018-09-10T09:58:35.612Z,100970.36
2018-09-10T10:01:09.152Z,100973.53
2018-09-10T10:03:42.755Z,100971.08
2018-09-10T10:06:10.943Z,100970.16
2018-09-10T10:08:39.050Z,100968.81
2018-09-10T10:11:07.256Z,100967.05
2018-09-10T10:13:35.291Z,100968.19
2018-09-10T10:16:03.444Z,100958.52
2018-09-10T10:18:31.556Z,100956.61
2018-09-10T10:20:59.611Z,100954.94
2018-09-10T10:23:27.696Z,100961.89
2018-09-10T10:25:55.837Z,100957.41
2018-09-10T10:28:24.044Z,100957.11
2018-09-10T10:30:52.100Z,100955.70
2018-09-10T10:33:20.184Z,100943.77
2018-09-10T10:35:48.245Z,100952.37
2018-09-10T10:38:16.361Z,100947.45
2018-09-10T10:40:44.452Z,100954.41
2018-09-10T10:43:12.568Z,100956.02
2018-09-10T10:45:40.709Z,100957.85
2018-09-10T10:48:08.795Z,100951.19
2018-09-10T10:50:37.159Z,100943.98
2018-09-10T10:53:05.247Z,100953.43
2018-09-10T10:55:33.302Z,100951.59
2018-09-10T10:58:01.515Z,100953.86
2018-09-10T11:00:29.736Z,100948.93
2018-09-10T11:02:57.910Z,100956.03
2018-09-10T11:05:26.119Z,100952.91
2018-09-10T11:07:54.531Z,100951.92
2018-09-10T11:10:23.139Z,100963.48
2018-09-10T11:12:51.268Z,100967.98
2018-09-10T11:15:19.328Z,100965.60
2018-09-10T11:17:47.419Z,100956.09
2018-09-10T11:20:15.492Z,100941.98
2018-09-10T11:22:50.065Z,100949.73
2018-09-10T11:25:18.159Z,100949.10
2018-09-10T11:27:46.344Z,100949.91
2018-09-10T11:30:14.352Z,100952.66
2018-09-10T11:32:42.403Z,100953.93
2018-09-10T11:35:10.484Z,100952.90
2018-09-10T11:37:38.561Z,100948.66
2018-09-10T11:40:06.635Z,100961.02
2018-09-10T11:42:34.701Z,100963.78
2018-09-10T11:45:02.791Z,100963.88
2018-09-10T11:47:30.849Z,100952.97
2018-09-10T11:49:58.900Z,100958.60
2018-09-10T11:52:26.973Z,100955.50
2018-09-10T11:54:55.024Z,100957.83
2018-09-10T11:57:23.099Z,100964.88
2018-09-10T11:59:51.161Z,100955.50
2018-09-10T12:02:19.213Z,100973.14
2018-09-10T12:04:47.250Z,100966.45
2018-09-10T12:07:15.294Z,100966.52
2018-09-10T12:09:43.349Z,100970.87
2018-09-10T12:12:11.466Z,100974.55
2018-09-10T12:14:39.608Z,100972.21
2018-09-10T12:17:07.723Z,100969.39
2018-09-10T12:19:35.795Z,100978.84
2018-09-10T12:22:03.856Z,100978.84
2018-09-10T12:24:31.914Z,100983.61
2018-09-10T12:27:00.028Z,100990.36
2018-09-10T12:29:28.179Z,100984.07
2018-09-10T12:31:56.209Z,100984.84
2018-09-10T12:34:24.303Z,100981.79
2018-09-10T12:36:52.363Z,100985.41
2018-09-10T12:39:20.508Z,100985.10
2018-09-10T12:41:48.560Z,100989.83
2018-09-10T12:44:16.627Z,100992.70
2018-09-10T12:46:44.731Z,101008.48
2018-09-10T12:49:12.779Z,101013.44
2018-09-10T12:51:41.400Z,101015.48
2018-09-10T12:54:09.635Z,101019.07
2018-09-10T12:56:39.494Z,101021.34
2018-09-10T12:59:07.563Z,101027.08
2018-09-10T13:01:35.612Z,101026.23
2018-09-10T13:06:47.088Z,101041.18
2018-09-10T13:09:16.202Z,101038.92
2018-09-10T13:11:44.918Z,101034.64
2018-09-10T13:14:13.929Z,101032.17
2018-09-10T13:16:42.008Z,101024.47
2018-09-10T13:19:10.050Z,101015.77
2018-09-10T13:21:38.099Z,101008.38
2018-09-10T13:24:06.203Z,101018.09
2018-09-10T13:26:34.327Z,101000.83
2018-09-10T13:29:02.698Z,101001.62
2018-09-10T13:31:30.753Z,100985.09
2018-09-10T13:34:03.347Z,100984.06
2018-09-10T13:36:31.436Z,100982.20
2018-09-10T13:39:01.398Z,100994.95
2018-09-10T13:41:31.009Z,100985.89
2018-09-10T13:43:59.626Z,100980.73
2018-09-10T13:46:27.680Z,100969.65
2018-09-10T13:48:56.068Z,100979.13
2018-09-10T13:51:24.307Z,100978.52
2018-09-10T13:53:54.790Z,100982.95
2018-09-10T13:56:23.090Z,100985.89
2018-09-10T13:58:51.175Z,100992.13
2018-09-10T14:01:19.275Z,100997.83
2018-09-10T14:03:47.378Z,100999.54
2018-09-10T14:06:16.064Z,101003.91
2018-09-10T14:08:44.124Z,101010.50
2018-09-10T14:11:13.279Z,101009.73
2018-09-10T14:13:42.259Z,101012.36
2018-09-10T14:16:10.403Z,100992.20
2018-09-10T14:18:38.490Z,100989.52
2018-09-10T14:21:07.286Z,100986.27
2018-09-10T14:23:36.392Z,100993.19
2018-09-10T14:26:04.732Z,100985.92
2018-09-10T14:28:32.949Z,100988.73
2018-09-10T14:31:01.044Z,100987.33
2018-09-10T14:33:29.213Z,101001.81
2018-09-10T14:35:57.371Z,101007.13
2018-09-10T14:38:25.544Z,101008.22
2018-09-10T14:40:53.715Z,101008.95
2018-09-10T14:43:21.831Z,101006.63
2018-09-10T14:45:49.940Z,101009.24
2018-09-10T14:48:18.015Z,101015.72
2018-09-10T14:50:46.113Z,101006.64
2018-09-10T14:53:14.193Z,101006.24
2018-09-10T14:55:42.293Z,101009.66
2018-09-10T14:58:10.352Z,101022.63
2018-09-10T15:00:38.437Z,101029.87
2018-09-10T15:03:06.524Z,101028.75
2018-09-10T15:05:34.572Z,101029.89
2018-09-10T15:08:02.646Z,101028.34
2018-09-10T15:10:30.712Z,101029.84
2018-09-10T15:12:58.812Z,101022.09
2018-09-10T15:15:27.423Z,101025.12
2018-09-10T15:17:55.640Z,101019.58
2018-09-10T15:20:23.720Z,101017.23
2018-09-10T15:22:51.827Z,101016.87
2018-09-10T15:25:19.938Z,101016.67
2018-09-10T15:27:48.014Z,101032.55
2018-09-10T15:30:16.077Z,101035.70
2018-09-10T15:32:44.237Z,101040.06
2018-09-10T15:35:12.288Z,101038.15
2018-09-10T15:37:40.372Z,101040.95
2018-09-10T15:40:08.462Z,101046.84
2018-09-10T15:42:36.566Z,101041.02
2018-09-10T15:45:04.661Z,101035.06
2018-09-10T15:47:32.758Z,101033.66
2018-09-10T15:50:00.820Z,101034.83
2018-09-10T15:52:31.904Z,101033.42
2018-09-10T15:55:00.024Z,101033.05
2018-09-10T15:57:28.105Z,101024.28
2018-09-10T15:59:56.241Z,101028.53
2018-09-10T16:02:24.326Z,101042.44
2018-09-10T16:04:53.106Z,101036.06
2018-09-10T16:07:21.221Z,101026.04
2018-09-10T16:09:49.236Z,101025.89
2018-09-10T16:12:17.284Z,101038.92
2018-09-10T16:14:45.368Z,101026.92
2018-09-10T16:17:13.482Z,100989.45
2018-09-10T16:19:41.567Z,101025.14
2018-09-10T16:22:09.665Z,101016.77
2018-09-10T16:24:37.761Z,101020.58
2018-09-10T16:27:05.805Z,101019.86
2018-09-10T16:29:33.897Z,101014.06
2018-09-10T16:32:01.978Z,101023.14
2018-09-10T16:34:30.052Z,101016.55
2018-09-10T16:36:58.108Z,101003.97
2018-09-10T16:39:26.197Z,101002.16
2018-09-10T16:41:54.256Z,101005.59
2018-09-10T16:44:22.348Z,101017.64
2018-09-10T16:46:50.404Z,101023.30
2018-09-10T16:49:18.459Z,101016.32
2018-09-10T16:51:46.528Z,101030.59
2018-09-10T16:54:14.622Z,101023.81
2018-09-10T16:56:42.705Z,101013.61
2018-09-10T16:59:10.883Z,100999.23
2018-09-10T17:01:38.935Z,101000.26
2018-09-10T17:04:07.012Z,101021.13
2018-09-10T17:06:35.084Z,101030.37
2018-09-10T17:09:03.342Z,101014.97
2018-09-10T17:11:31.402Z,101012.38
2018-09-10T17:13:59.475Z,101010.78
2018-09-10T17:16:27.579Z,101015.80
2018-09-10T17:18:55.660Z,101019.63
2018-09-10T17:21:23.729Z,101025.24
2018-09-10T17:23:51.817Z,101035.88
2018-09-10T17:26:19.860Z,101034.68
2018-09-10T17:28:47.931Z,101031.29
2018-09-10T17:31:15.995Z,101032.52
2018-09-10T17:33:44.111Z,101034.52
2018-09-10T17:36:12.187Z,101033.13
2018-09-10T17:38:40.544Z,101034.53
2018-09-10T17:41:08.666Z,101040.95
2018-09-10T17:43:36.716Z,101035.38
2018-09-10T17:46:04.832Z,101032.59
2018-09-10T17:48:32.882Z,101041.20
2018-09-10T17:51:00.958Z,101046.19
2018-09-10T17:53:28.995Z,101050.59
2018-09-10T17:55:57.092Z,101058.80
2018-09-10T17:58:25.171Z,101057.22
2018-09-10T18:00:53.238Z,101065.20
2018-09-10T18:03:21.299Z,101059.81
2018-09-10T18:05:49.512Z,101060.23
2018-09-10T18:08:17.589Z,101061.21
2018-09-10T18:10:45.665Z,101045.84
2018-09-10T18:13:13.727Z,101045.03
2018-09-10T18:15:41.840Z,101042.44
2018-09-10T18:18:09.970Z,101040.03
2018-09-10T18:20:38.081Z,101041.42
2018-09-10T18:23:06.120Z,101049.44
2018-09-10T18:25:34.173Z,101066.63
2018-09-10T18:28:02.219Z,101071.03
2018-09-10T18:30:30.398Z,101078.45
2018-09-10T18:32:58.488Z,101077.23
2018-09-10T18:35:26.580Z,101063.05
2018-09-10T18:37:54.795Z,101038.86
2018-09-10T18:40:23.000Z,101033.86
2018-09-10T18:42:51.063Z,101040.05
2018-09-10T18:45:19.432Z,101044.66
2018-09-10T18:47:53.824Z,101050.26
2018-09-10T18:50:21.914Z,101040.45
2018-09-10T18:52:49.980Z,101034.47
2018-09-10T18:55:18.144Z,101041.45
2018-09-10T18:57:46.215Z,101038.66
2018-09-10T19:00:14.384Z,101037.25
2018-09-10T19:03:45.301Z,101025.45
2018-09-10T19:06:13.450Z,101031.88
2018-09-10T19:08:41.537Z,101038.83
2018-09-10T19:11:09.607Z,101044.41
2018-09-10T19:13:37.644Z,101043.22
2018-09-10T19:16:05.708Z,101030.62
2018-09-10T19:18:37.777Z,101030.23
2018-09-10T19:21:06.051Z,101033.02
2018-09-10T19:23:34.753Z,101032.20
2018-09-10T19:26:03.129Z,101038.80
2018-09-10T19:28:31.209Z,101037.98
2018-09-10T19:30:59.312Z,101041.57
2018-09-10T19:33:27.420Z,101045.37
2018-09-10T19:35:55.508Z,101047.34
2018-09-10T19:38:24.772Z,101046.95
2018-09-10T19:40:52.907Z,101040.75
2018-09-10T19:43:20.971Z,101026.97
2018-09-10T19:45:49.067Z,101031.36
2018-09-10T19:48:17.144Z,101040.76
2018-09-10T19:50:45.247Z,101040.55
2018-09-10T19:53:13.292Z,101041.12
2018-09-10T19:55:41.472Z,101036.74
2018-09-10T19:58:09.625Z,101034.92
2018-09-10T20:00:37.672Z,101028.34
2018-09-10T20:03:05.730Z,101030.33
2018-09-10T20:05:33.760Z,101026.55
2018-09-10T20:08:01.867Z,101021.33
2018-09-10T20:10:29.889Z,101022.93
2018-09-10T20:12:57.945Z,101027.50
2018-09-10T20:15:26.101Z,101029.52
2018-09-10T20:17:54.190Z,101025.70
2018-09-10T20:20:22.337Z,101020.53
2018-09-10T20:22:50.383Z,101012.52
2018-09-10T20:25:18.471Z,101016.31
2018-09-10T20:27:46.550Z,101017.28
2018-09-10T20:30:14.735Z,101027.07
2018-09-10T20:32:42.844Z,101038.06
2018-09-10T20:35:10.929Z,101036.23
2018-09-10T20:37:39.016Z,101033.27
2018-09-10T20:40:07.079Z,101028.86
2018-09-10T20:42:35.151Z,101027.27
2018-09-10T20:45:03.241Z,101028.24
2018-09-10T20:47:31.372Z,101033.44
2018-09-10T20:49:59.471Z,101033.81
2018-09-10T20:52:27.545Z,101030.24
2018-09-10T20:54:55.572Z,101021.22
2018-09-10T20:57:23.667Z,101020.61
2018-09-10T20:59:51.769Z,101015.39
2018-09-10T21:02:20.095Z,101012.39
2018-09-10T21:04:48.185Z,101006.20
2018-09-10T21:07:16.301Z,101007.58
2018-09-10T21:09:44.353Z,101006.34
2018-09-10T21:12:12.425Z,101007.34
2018-09-10T21:14:40.468Z,101010.30
2018-09-10T21:17:08.537Z,101002.11
2018-09-10T21:19:36.580Z,101005.31
2018-09-10T21:22:04.648Z,101009.28
2018-09-10T21:24:32.695Z,101005.69
2018-09-10T21:27:00.758Z,101002.73
2018-09-10T21:29:28.830Z,101014.67
2018-09-10T21:31:56.904Z,101009.50
2018-09-10T21:34:24.997Z,101001.52
2018-09-10T21:36:53.083Z,100997.92
2018-09-10T21:39:21.165Z,100993.92
2018-09-10T21:41:49.215Z,100990.54
2018-09-10T21:44:17.311Z,100991.56
2018-09-10T21:46:45.377Z,100990.16
2018-09-10T21:49:20.078Z,100976.38
2018-09-10T21:51:48.137Z,100984.17
2018-09-10T21:54:16.207Z,100987.55
2018-09-10T21:56:44.268Z,100979.39
2018-09-10T21:59:12.347Z,100976.59
2018-09-10T22:01:40.410Z,100974.39
2018-09-10T22:04:08.521Z,100966.02
2018-09-10T22:06:36.759Z,100956.84
2018-09-10T22:12:04.054Z,100953.45
2018-09-10T22:14:33.256Z,100958.23
2018-09-10T22:17:01.728Z,100955.04
2018-09-10T22:19:29.831Z,100969.59
2018-09-10T22:21:57.967Z,100967.20
2018-09-10T22:24:26.153Z,100981.97
2018-09-10T22:26:54.316Z,100985.56
2018-09-10T22:29:22.404Z,100987.55
2018-09-10T22:31:50.441Z,100975.80
2018-09-10T22:34:18.513Z,100979.77
2018-09-10T22:36:46.562Z,100978.56
2018-09-10T22:39:15.403Z,100988.16
2018-09-10T22:41:43.876Z,100976.37
2018-09-10T22:44:11.959Z,100969.77
2018-09-10T22:46:39.993Z,100971.35
2018-09-10T22:49:08.659Z,100974.12
2018-09-10T22:51:37.280Z,100971.30
2018-09-10T22:54:05.340Z,100970.28
2018-09-10T22:56:33.420Z,100967.09
2018-09-10T22:59:01.483Z,100957.11
2018-09-10T23:01:29.519Z,100961.08
2018-09-10T23:03:57.584Z,100955.72
2018-09-10T23:06:25.637Z,100954.11
2018-09-10T23:08:53.680Z,100962.30
2018-09-10T23:11:21.721Z,100963.27
2018-09-10T23:13:49.829Z,100954.11
2018-09-10T23:16:17.864Z,100953.09
2018-09-10T23:18:46.149Z,100957.87
2018-09-10T23:21:14.183Z,100963.27
2018-09-10T23:23:42.223Z,100961.84
2018-09-10T23:26:10.280Z,100971.18
2018-09-10T23:28:38.395Z,100970.78
2018-09-10T23:31:06.933Z,100974.56
2018-09-10T23:33:35.935Z,100967.74
2018-09-10T23:36:03.994Z,100971.34
2018-09-10T23:38:32.096Z,100979.53
2018-09-10T23:41:00.177Z,100970.32
2018-09-10T23:43:28.271Z,100980.49
2018-09-10T23:45:56.473Z,100980.49
2018-09-10T23:48:24.579Z,100981.64
2018-09-10T23:50:52.637Z,100986.05
2018-09-10T23:53:20.705Z,100991.22
2018-09-10T23:55:48.774Z,100996.37
2018-09-10T23:58:16.832Z,100990.78
